Time;durP1;ratioP1;P1;durP2;ratioP2;P2;SDS_P1;SDS_P2;PMS_P1;PMS_P2;Temp;Humidity;BMP_temperature;BMP_pressure;BME280_temperature;BME280_humidity;BME280_pressure;Samples;Min_cycle;Max_cycle;Signal;HPM_P1;HPM_P2
2023/10/15 00:00:24;;;;;;;12.05;5.32;;;;;;;;;;4950959;28;20036;-66
2023/10/15 00:02:54;;;;;;;12.43;5.10;;;;;;;;;;4960757;28;20347;-65
2023/10/15 00:05:21;;;;;;;9.52;4.72;;;;;;;;;;4956626;28;20385;-65
2023/10/15 00:07:48;;;;;;;11.13;4.93;;;;;;;;;;4955962;28;20035;-65
2023/10/15 00:10:15;;;;;;;11.20;4.97;;;;;;;;;;4960513;28;20031;-65
2023/10/15 00:12:43;;;;;;;13.25;5.25;;;;;;;;;;4959715;28;20393;-65
2023/10/15 00:15:15;;;;;;;11.85;4.88;;;;;;;;;;4958569;28;20564;-66
2023/10/15 00:17:42;;;;;;;10.20;4.57;;;;;;;;;;4960022;28;20390;-66
2023/10/15 00:20:10;;;;;;;12.10;5.22;;;;;;;;;;4960730;28;20432;-66
2023/10/15 00:22:38;;;;;;;9.93;4.65;;;;;;;;;;4964765;28;20092;-66
2023/10/15 00:25:09;;;;;;;12.07;5.03;;;;;;;;;;4960496;28;20030;-66
2023/10/15 00:27:39;;;;;;;12.43;5.25;;;;;;;;;;4978459;28;20038;-66
2023/10/15 00:30:12;;;;;;;12.13;6.05;;;;;;;;;;4974200;28;20035;-66
2023/10/15 00:32:40;;;;;;;11.98;5.65;;;;;;;;;;4961903;28;20776;-66
2023/10/15 00:35:06;;;;;;;14.73;7.45;;;;;;;;;;4972778;28;20045;-67
2023/10/15 00:37:35;;;;;;;13.90;6.38;;;;;;;;;;4962351;28;20026;-67
2023/10/15 00:40:04;;;;;;;12.10;5.95;;;;;;;;;;4956962;28;20521;-66
2023/10/15 00:42:30;;;;;;;16.40;5.22;;;;;;;;;;4961163;28;20026;-66
2023/10/15 00:44:57;;;;;;;11.43;5.45;;;;;;;;;;4977067;28;20443;-67
2023/10/15 00:47:23;;;;;;;12.23;5.63;;;;;;;;;;4959843;28;20023;-66
2023/10/15 00:49:49;;;;;;;11.68;4.88;;;;;;;;;;4958975;28;20505;-68
2023/10/15 00:52:16;;;;;;;13.43;5.10;;;;;;;;;;4955631;28;20022;-66
2023/10/15 00:54:42;;;;;;;13.18;4.78;;;;;;;;;;4961155;28;20035;-67
2023/10/15 00:57:35;;;;;;;10.88;4.85;;;;;;;;;;4955426;28;20436;-66
2023/10/15 01:00:02;;;;;;;11.70;4.88;;;;;;;;;;4961491;28;20046;-65
2023/10/15 01:02:29;;;;;;;12.05;4.53;;;;;;;;;;4961330;28;20566;-65
2023/10/15 01:05:00;;;;;;;13.95;4.68;;;;;;;;;;4961956;28;20117;-65
2023/10/15 01:07:34;;;;;;;11.25;4.63;;;;;;;;;;4962017;28;20026;-65
2023/10/15 01:10:03;;;;;;;11.27;4.57;;;;;;;;;;4960477;28;20117;-65
2023/10/15 01:12:32;;;;;;;11.77;4.53;;;;;;;;;;4962541;28;20367;-66
2023/10/15 01:14:59;;;;;;;10.30;4.63;;;;;;;;;;4959812;28;20843;-65
2023/10/15 01:17:53;;;;;;;11.32;4.50;;;;;;;;;;4958892;28;20181;-67
2023/10/15 01:20:18;;;;;;;13.18;6.07;;;;;;;;;;4957763;28;20587;-65
2023/10/15 01:22:45;;;;;;;13.25;5.28;;;;;;;;;;4958042;28;20053;-65
2023/10/15 01:28:07;;;;;;;10.63;5.00;;;;;;;;;;4941309;28;20579;-65
2023/10/15 01:30:36;;;;;;;12.90;4.72;;;;;;;;;;4962448;28;20540;-65
2023/10/15 01:33:07;;;;;;;13.43;5.40;;;;;;;;;;4961194;28;20638;-65
2023/10/15 01:35:37;;;;;;;12.18;5.20;;;;;;;;;;4960830;28;20483;-65
2023/10/15 01:38:10;;;;;;;10.90;5.10;;;;;;;;;;4957957;28;20351;-65
2023/10/15 01:40:40;;;;;;;10.13;4.05;;;;;;;;;;4960818;28;20030;-65
2023/10/15 01:43:15;;;;;;;13.23;4.00;;;;;;;;;;4960112;28;20073;-64
2023/10/15 01:45:47;;;;;;;17.17;5.13;;;;;;;;;;4959072;28;20035;-64
2023/10/15 01:48:30;;;;;;;11.15;5.22;;;;;;;;;;4957805;28;20397;-67
2023/10/15 01:51:04;;;;;;;13.52;5.63;;;;;;;;;;4978018;28;20030;-65
2023/10/15 01:53:34;;;;;;;14.45;5.32;;;;;;;;;;4960272;28;20756;-65
2023/10/15 01:56:04;;;;;;;11.55;4.45;;;;;;;;;;4961496;28;20714;-64
2023/10/15 01:58:33;;;;;;;12.10;5.03;;;;;;;;;;4960611;28;20350;-65
2023/10/15 02:01:13;;;;;;;12.13;5.13;;;;;;;;;;4957899;28;20113;-65
2023/10/15 02:03:41;;;;;;;14.45;6.00;;;;;;;;;;4962251;28;20121;-65
2023/10/15 02:06:08;;;;;;;16.40;7.03;;;;;;;;;;4954166;28;20037;-64
2023/10/15 02:08:39;;;;;;;14.38;6.00;;;;;;;;;;4957449;28;20128;-65
2023/10/15 02:11:16;;;;;;;13.55;6.18;;;;;;;;;;4958774;28;20026;-65
2023/10/15 02:13:45;;;;;;;12.48;5.32;;;;;;;;;;4956723;28;20804;-65
2023/10/15 02:16:16;;;;;;;10.55;5.03;;;;;;;;;;4957066;28;20042;-65
2023/10/15 02:18:45;;;;;;;14.38;6.03;;;;;;;;;;4955414;28;20330;-65
2023/10/15 02:21:16;;;;;;;13.10;5.35;;;;;;;;;;4970307;28;20395;-64
2023/10/15 02:23:49;;;;;;;14.80;6.22;;;;;;;;;;4962334;28;20034;-65
2023/10/15 02:26:18;;;;;;;10.75;5.32;;;;;;;;;;4969941;28;20548;-65
2023/10/15 02:28:44;;;;;;;12.57;5.85;;;;;;;;;;4960119;28;20467;-66
2023/10/15 02:31:14;;;;;;;13.82;5.72;;;;;;;;;;4956293;28;21009;-65
2023/10/15 02:33:40;;;;;;;13.27;6.18;;;;;;;;;;4960191;28;20424;-65
2023/10/15 02:36:07;;;;;;;11.68;5.65;;;;;;;;;;4956940;28;20034;-66
2023/10/15 02:38:36;;;;;;;12.35;6.00;;;;;;;;;;4961147;28;20061;-65
2023/10/15 02:43:29;;;;;;;14.18;6.05;;;;;;;;;;4953622;28;20412;-65
2023/10/15 02:46:17;;;;;;;14.18;5.95;;;;;;;;;;4958915;28;20058;-65
2023/10/15 02:48:41;;;;;;;14.23;5.85;;;;;;;;;;4960403;28;20598;-65
2023/10/15 02:51:08;;;;;;;13.85;5.90;;;;;;;;;;4971401;28;20519;-65
2023/10/15 02:53:36;;;;;;;11.55;5.35;;;;;;;;;;4962887;28;20509;-65
2023/10/15 02:56:21;;;;;;;9.68;4.60;;;;;;;;;;4972133;28;20139;-65
2023/10/15 02:58:47;;;;;;;11.30;5.38;;;;;;;;;;4959023;28;20483;-66
2023/10/15 03:01:20;;;;;;;13.43;5.97;;;;;;;;;;4953391;28;20096;-66
2023/10/15 03:03:49;;;;;;;10.82;4.32;;;;;;;;;;4974352;28;20050;-67
2023/10/15 03:06:19;;;;;;;11.98;5.00;;;;;;;;;;4956277;28;20125;-65
2023/10/15 03:08:49;;;;;;;14.68;5.10;;;;;;;;;;4973479;28;20026;-65
2023/10/15 03:11:18;;;;;;;13.23;5.00;;;;;;;;;;4958277;28;20056;-66
2023/10/15 03:13:50;;;;;;;11.20;4.85;;;;;;;;;;4975285;28;20030;-65
2023/10/15 03:16:26;;;;;;;10.93;4.63;;;;;;;;;;4960228;28;20030;-66
2023/10/15 03:18:56;;;;;;;10.23;4.07;;;;;;;;;;4960759;28;20510;-65
2023/10/15 03:21:25;;;;;;;9.27;4.32;;;;;;;;;;4959085;28;20033;-65
2023/10/15 03:23:55;;;;;;;8.75;4.05;;;;;;;;;;4959088;28;20561;-65
2023/10/15 03:26:21;;;;;;;8.77;3.85;;;;;;;;;;4956458;28;23633;-65
2023/10/15 03:28:51;;;;;;;10.95;4.68;;;;;;;;;;4958674;28;20608;-65
2023/10/15 03:31:20;;;;;;;11.95;4.90;;;;;;;;;;4957448;28;20014;-65
2023/10/15 03:36:30;;;;;;;14.02;4.85;;;;;;;;;;4962840;28;20812;-65
2023/10/15 03:38:58;;;;;;;12.90;5.03;;;;;;;;;;4959446;28;20026;-65
2023/10/15 03:41:29;;;;;;;13.95;5.65;;;;;;;;;;4956385;28;20595;-66
2023/10/15 03:44:02;;;;;;;12.90;4.90;;;;;;;;;;4977838;28;20116;-66
2023/10/15 03:46:33;;;;;;;17.23;5.40;;;;;;;;;;4966021;28;20043;-67
2023/10/15 03:49:00;;;;;;;13.43;5.05;;;;;;;;;;4965030;28;20061;-66
2023/10/15 03:51:27;;;;;;;13.93;5.05;;;;;;;;;;4960363;28;20368;-66
2023/10/15 03:53:53;;;;;;;9.38;4.22;;;;;;;;;;4964386;28;20129;-66
2023/10/15 03:56:27;;;;;;;12.20;5.22;;;;;;;;;;4961917;28;20315;-66
2023/10/15 03:58:53;;;;;;;12.85;5.28;;;;;;;;;;4961447;28;20538;-66
2023/10/15 04:01:20;;;;;;;10.18;4.55;;;;;;;;;;4960820;28;20448;-66
2023/10/15 04:03:49;;;;;;;11.98;4.97;;;;;;;;;;4963888;28;20129;-66
2023/10/15 04:06:16;;;;;;;11.80;4.78;;;;;;;;;;4956453;28;20035;-66
2023/10/15 04:11:42;;;;;;;11.93;5.43;;;;;;;;;;4955704;28;20052;-66
2023/10/15 04:16:43;;;;;;;13.95;5.50;;;;;;;;;;4964033;28;20046;-66
2023/10/15 04:19:10;;;;;;;17.17;5.82;;;;;;;;;;4971775;28;20555;-65
2023/10/15 04:21:40;;;;;;;37.60;8.80;;;;;;;;;;4960422;28;20076;-65
2023/10/15 04:24:07;;;;;;;37.80;9.70;;;;;;;;;;4958493;28;20053;-66
2023/10/15 04:26:35;;;;;;;29.77;8.20;;;;;;;;;;4965512;28;20038;-66
2023/10/15 04:29:16;;;;;;;19.00;6.90;;;;;;;;;;4960586;28;20536;-66
2023/10/15 04:31:44;;;;;;;20.67;6.57;;;;;;;;;;4958956;28;20495;-66
2023/10/15 04:34:18;;;;;;;14.77;5.72;;;;;;;;;;4974681;28;20031;-66
2023/10/15 04:36:44;;;;;;;15.55;5.60;;;;;;;;;;4964328;28;20029;-65
2023/10/15 04:39:15;;;;;;;13.85;5.65;;;;;;;;;;4959285;28;20710;-66
2023/10/15 04:41:41;;;;;;;13.90;5.72;;;;;;;;;;4979681;28;20236;-66
2023/10/15 04:44:12;;;;;;;14.23;5.75;;;;;;;;;;4972755;28;20089;-66
2023/10/15 04:46:43;;;;;;;10.75;4.38;;;;;;;;;;4961066;28;20121;-66
2023/10/15 04:49:10;;;;;;;15.02;4.90;;;;;;;;;;4956480;28;20353;-66
2023/10/15 04:51:42;;;;;;;16.73;5.30;;;;;;;;;;4964032;28;20036;-65
2023/10/15 04:54:09;;;;;;;13.43;4.90;;;;;;;;;;4973532;28;20431;-66
2023/10/15 04:56:36;;;;;;;15.88;6.38;;;;;;;;;;4976594;28;20109;-66
2023/10/15 04:59:02;;;;;;;14.43;5.63;;;;;;;;;;4957540;28;20034;-65
2023/10/15 05:01:30;;;;;;;18.65;6.10;;;;;;;;;;4959423;28;20240;-65
2023/10/15 05:03:56;;;;;;;21.63;6.18;;;;;;;;;;4957828;28;20339;-65
2023/10/15 05:06:22;;;;;;;16.58;6.18;;;;;;;;;;4958787;28;20711;-66
2023/10/15 05:08:49;;;;;;;15.13;4.75;;;;;;;;;;4964284;28;20313;-66
2023/10/15 05:11:21;;;;;;;14.77;5.38;;;;;;;;;;4954053;28;20476;-66
2023/10/15 05:13:48;;;;;;;15.50;5.50;;;;;;;;;;4958490;28;20646;-66
2023/10/15 05:16:17;;;;;;;18.83;5.55;;;;;;;;;;4958518;28;20055;-66
2023/10/15 05:18:43;;;;;;;17.35;5.57;;;;;;;;;;4956374;28;20543;-67
2023/10/15 05:21:13;;;;;;;18.08;6.22;;;;;;;;;;4958118;28;20033;-67
2023/10/15 05:23:39;;;;;;;14.85;5.75;;;;;;;;;;4962344;28;20030;-67
2023/10/15 05:26:06;;;;;;;13.20;5.65;;;;;;;;;;4959070;28;20129;-68
2023/10/15 05:28:32;;;;;;;16.73;5.93;;;;;;;;;;4964554;28;20113;-67
2023/10/15 05:30:58;;;;;;;14.70;5.38;;;;;;;;;;4962804;28;20116;-66
2023/10/15 05:33:24;;;;;;;16.85;5.63;;;;;;;;;;4974653;28;20036;-67
2023/10/15 05:35:51;;;;;;;15.15;6.20;;;;;;;;;;4963213;28;20034;-66
2023/10/15 05:38:17;;;;;;;16.08;6.22;;;;;;;;;;4955619;28;20043;-70
2023/10/15 05:40:46;;;;;;;30.10;5.80;;;;;;;;;;4963569;28;20555;-79
2023/10/15 05:43:13;;;;;;;22.55;4.38;;;;;;;;;;4977567;28;20030;-77
2023/10/15 05:45:39;;;;;;;18.50;3.10;;;;;;;;;;4976567;28;20037;-79
2023/10/15 05:48:05;;;;;;;12.93;2.10;;;;;;;;;;4960165;28;20437;-74
2023/10/15 05:50:32;;;;;;;8.60;1.92;;;;;;;;;;4956749;28;20162;-74
2023/10/15 05:52:58;;;;;;;8.48;2.50;;;;;;;;;;4961638;28;20026;-74
2023/10/15 05:55:24;;;;;;;8.05;2.22;;;;;;;;;;4961719;28;20461;-73
2023/10/15 05:57:51;;;;;;;9.70;3.03;;;;;;;;;;4980263;28;20031;-72
2023/10/15 06:00:26;;;;;;;9.98;2.75;;;;;;;;;;4953817;28;20038;-72
2023/10/15 06:02:53;;;;;;;10.60;3.58;;;;;;;;;;4958300;28;20572;-73
2023/10/15 06:05:21;;;;;;;11.48;4.47;;;;;;;;;;4952434;28;20037;-73
2023/10/15 06:07:48;;;;;;;9.50;4.00;;;;;;;;;;4977186;28;20057;-73
2023/10/15 06:10:15;;;;;;;10.15;4.38;;;;;;;;;;4956841;28;20120;-73
2023/10/15 06:12:42;;;;;;;10.88;4.35;;;;;;;;;;4971581;28;20445;-73
2023/10/15 06:15:09;;;;;;;12.63;4.35;;;;;;;;;;4954757;28;20256;-73
2023/10/15 06:17:35;;;;;;;11.88;4.97;;;;;;;;;;4961591;28;20638;-73
2023/10/15 06:20:24;;;;;;;12.30;4.65;;;;;;;;;;4960537;28;20029;-73
2023/10/15 06:22:55;;;;;;;11.15;4.10;;;;;;;;;;4957460;28;20461;-70
2023/10/15 06:25:21;;;;;;;12.10;4.93;;;;;;;;;;4957168;28;20460;-71
2023/10/15 06:27:47;;;;;;;10.55;4.07;;;;;;;;;;4955762;28;20065;-71
2023/10/15 06:30:16;;;;;;;12.07;4.60;;;;;;;;;;4953836;28;20037;-71
2023/10/15 06:32:49;;;;;;;11.10;4.28;;;;;;;;;;4956043;28;20760;-72
2023/10/15 06:35:19;;;;;;;10.25;4.22;;;;;;;;;;4952710;28;20149;-72
2023/10/15 06:37:49;;;;;;;9.13;3.60;;;;;;;;;;4956820;28;20033;-71
2023/10/15 06:40:16;;;;;;;10.93;3.70;;;;;;;;;;4950221;28;20027;-70
2023/10/15 06:42:43;;;;;;;8.00;2.95;;;;;;;;;;4958399;28;20106;-71
2023/10/15 06:45:09;;;;;;;8.57;3.10;;;;;;;;;;4950736;28;20026;-72
2023/10/15 06:47:36;;;;;;;9.18;3.40;;;;;;;;;;4956884;28;20481;-71
2023/10/15 06:50:06;;;;;;;8.27;2.95;;;;;;;;;;4954747;28;20050;-70
2023/10/15 06:52:37;;;;;;;8.82;2.95;;;;;;;;;;4958698;28;20034;-70
2023/10/15 06:55:04;;;;;;;7.90;2.50;;;;;;;;;;4966304;28;20449;-70
2023/10/15 06:57:30;;;;;;;7.38;2.30;;;;;;;;;;4953015;28;20081;-70
2023/10/15 06:59:56;;;;;;;9.27;2.80;;;;;;;;;;4955057;28;20026;-69
2023/10/15 07:02:22;;;;;;;7.53;2.40;;;;;;;;;;4949276;28;20477;-70
2023/10/15 07:04:48;;;;;;;7.70;2.20;;;;;;;;;;4954250;28;20339;-70
2023/10/15 07:07:15;;;;;;;9.63;3.08;;;;;;;;;;4952019;28;20084;-71
2023/10/15 07:09:42;;;;;;;11.10;3.05;;;;;;;;;;4969089;28;20557;-71
2023/10/15 07:12:08;;;;;;;11.13;3.15;;;;;;;;;;4950980;28;20290;-70
2023/10/15 07:14:34;;;;;;;11.18;3.40;;;;;;;;;;4950473;28;20145;-71
2023/10/15 07:17:00;;;;;;;9.20;3.08;;;;;;;;;;4952729;28;20031;-70
2023/10/15 07:19:26;;;;;;;8.85;2.83;;;;;;;;;;4956845;28;20342;-71
2023/10/15 07:21:53;;;;;;;8.77;2.90;;;;;;;;;;4959645;28;20136;-71
2023/10/15 07:24:19;;;;;;;9.88;3.13;;;;;;;;;;4956279;28;20034;-70
2023/10/15 07:26:46;;;;;;;8.98;2.38;;;;;;;;;;4960809;28;20093;-70
2023/10/15 07:29:12;;;;;;;8.70;2.55;;;;;;;;;;4956240;28;20504;-70
2023/10/15 07:31:38;;;;;;;8.80;2.50;;;;;;;;;;4955915;28;20447;-70
2023/10/15 07:34:05;;;;;;;10.10;2.90;;;;;;;;;;4954307;28;20031;-70
2023/10/15 07:36:32;;;;;;;8.23;2.75;;;;;;;;;;4956799;28;20223;-70
2023/10/15 07:38:58;;;;;;;8.38;2.25;;;;;;;;;;4957361;28;20026;-69
2023/10/15 07:41:25;;;;;;;8.13;2.60;;;;;;;;;;4954910;28;20057;-69
2023/10/15 07:43:51;;;;;;;6.97;2.45;;;;;;;;;;4955867;28;20022;-70
2023/10/15 07:46:19;;;;;;;8.38;2.80;;;;;;;;;;4950822;28;20030;-70
2023/10/15 07:48:45;;;;;;;7.93;2.85;;;;;;;;;;4957296;28;20279;-69
2023/10/15 07:51:12;;;;;;;9.73;4.28;;;;;;;;;;4954858;28;20444;-70
2023/10/15 07:53:39;;;;;;;13.25;9.02;;;;;;;;;;4956164;28;20230;-69
2023/10/15 07:56:07;;;;;;;12.10;9.05;;;;;;;;;;4954420;28;20433;-70
2023/10/15 07:58:33;;;;;;;13.85;9.90;;;;;;;;;;4957469;28;20023;-69
2023/10/15 08:01:01;;;;;;;12.70;8.38;;;;;;;;;;4955344;28;20445;-69
2023/10/15 08:03:29;;;;;;;11.93;7.28;;;;;;;;;;4958255;28;20444;-69
2023/10/15 08:05:55;;;;;;;9.90;5.10;;;;;;;;;;4957772;28;20062;-69
2023/10/15 08:08:24;;;;;;;8.48;3.05;;;;;;;;;;4956064;28;20458;-69
2023/10/15 08:10:51;;;;;;;8.25;2.58;;;;;;;;;;4972438;28;20063;-69
2023/10/15 08:13:18;;;;;;;7.40;2.47;;;;;;;;;;4950625;28;20026;-68
2023/10/15 08:15:45;;;;;;;7.75;2.30;;;;;;;;;;4973829;28;20049;-69
2023/10/15 08:18:12;;;;;;;9.15;3.03;;;;;;;;;;4952807;28;20570;-69
2023/10/15 08:20:38;;;;;;;7.15;2.42;;;;;;;;;;4959485;28;20027;-68
2023/10/15 08:23:04;;;;;;;8.55;3.00;;;;;;;;;;4951893;28;20343;-69
2023/10/15 08:25:34;;;;;;;8.30;2.75;;;;;;;;;;4955832;28;20125;-69
2023/10/15 08:28:01;;;;;;;8.15;2.78;;;;;;;;;;4973755;28;20022;-69
2023/10/15 08:30:27;;;;;;;9.13;2.45;;;;;;;;;;4957858;28;20403;-69
2023/10/15 08:32:53;;;;;;;7.03;2.45;;;;;;;;;;4973030;28;20113;-69
2023/10/15 08:35:20;;;;;;;9.07;2.47;;;;;;;;;;4957296;28;20026;-69
2023/10/15 08:37:46;;;;;;;6.78;2.53;;;;;;;;;;4960404;28;20030;-69
2023/10/15 08:40:16;;;;;;;8.07;2.17;;;;;;;;;;4953439;28;20064;-70
2023/10/15 08:42:44;;;;;;;8.68;2.08;;;;;;;;;;4955873;28;20358;-69
2023/10/15 08:45:10;;;;;;;10.20;2.25;;;;;;;;;;4952510;28;20133;-69
2023/10/15 08:47:37;;;;;;;6.82;1.83;;;;;;;;;;4971583;28;20062;-66
2023/10/15 08:50:03;;;;;;;6.95;1.83;;;;;;;;;;4952890;28;20046;-68
2023/10/15 08:52:31;;;;;;;6.20;1.67;;;;;;;;;;4956291;28;20077;-68
2023/10/15 08:55:01;;;;;;;7.35;1.95;;;;;;;;;;4956125;28;20277;-70
2023/10/15 08:57:29;;;;;;;6.43;1.90;;;;;;;;;;4956480;28;20093;-67
2023/10/15 08:59:57;;;;;;;6.72;2.22;;;;;;;;;;4952877;28;20544;-70
2023/10/15 09:02:24;;;;;;;7.63;2.80;;;;;;;;;;4954947;28;20563;-67
2023/10/15 09:04:52;;;;;;;6.85;2.13;;;;;;;;;;4958464;28;20361;-69
2023/10/15 09:07:19;;;;;;;8.02;2.50;;;;;;;;;;4955884;28;20435;-69
2023/10/15 09:09:45;;;;;;;7.38;2.33;;;;;;;;;;4954020;28;20387;-69
2023/10/15 09:12:14;;;;;;;7.38;2.40;;;;;;;;;;4951488;28;20485;-69
2023/10/15 09:14:44;;;;;;;6.90;2.10;;;;;;;;;;4954966;28;20409;-69
2023/10/15 09:17:11;;;;;;;6.97;2.20;;;;;;;;;;4952431;28;20333;-69
2023/10/15 09:19:41;;;;;;;8.07;2.38;;;;;;;;;;4957371;28;20510;-69
2023/10/15 09:22:08;;;;;;;8.57;2.53;;;;;;;;;;4967900;28;20043;-69
2023/10/15 09:24:36;;;;;;;9.32;2.63;;;;;;;;;;4955869;28;20086;-69
2023/10/15 09:27:05;;;;;;;6.57;2.20;;;;;;;;;;4966912;28;20817;-71
2023/10/15 09:29:32;;;;;;;8.43;2.13;;;;;;;;;;4955006;28;20327;-69
2023/10/15 09:32:02;;;;;;;7.63;2.42;;;;;;;;;;4954308;28;20459;-69
2023/10/15 09:34:29;;;;;;;9.63;2.50;;;;;;;;;;4953630;28;20066;-69
2023/10/15 09:36:58;;;;;;;8.30;2.25;;;;;;;;;;4955023;28;20153;-69
2023/10/15 09:39:26;;;;;;;5.82;1.73;;;;;;;;;;4955803;28;20037;-68
2023/10/15 09:41:53;;;;;;;8.70;2.42;;;;;;;;;;4954721;28;20069;-68
2023/10/15 09:44:19;;;;;;;8.77;2.42;;;;;;;;;;4953596;28;20022;-70
2023/10/15 09:46:46;;;;;;;9.55;2.67;;;;;;;;;;4957805;28;20035;-69
2023/10/15 09:49:13;;;;;;;8.27;2.78;;;;;;;;;;4954325;28;20450;-69
2023/10/15 09:51:43;;;;;;;9.63;3.03;;;;;;;;;;4967965;28;20359;-69
2023/10/15 09:54:14;;;;;;;9.35;2.83;;;;;;;;;;4952728;28;20045;-70
2023/10/15 09:56:41;;;;;;;8.23;2.80;;;;;;;;;;4969938;28;20053;-69
2023/10/15 09:59:10;;;;;;;11.52;2.67;;;;;;;;;;4952595;28;20397;-69
2023/10/15 10:01:38;;;;;;;10.43;2.83;;;;;;;;;;4952339;28;20323;-69
2023/10/15 10:04:14;;;;;;;7.13;2.17;;;;;;;;;;4950957;28;20034;-70
2023/10/15 10:06:55;;;;;;;7.63;2.33;;;;;;;;;;4952007;28;20035;-70
2023/10/15 10:09:39;;;;;;;8.48;2.55;;;;;;;;;;4953626;28;21614;-70
2023/10/15 10:12:22;;;;;;;8.82;2.70;;;;;;;;;;4950198;28;20061;-68
2023/10/15 10:14:48;;;;;;;10.00;2.55;;;;;;;;;;4953405;28;20703;-70
2023/10/15 10:17:18;;;;;;;11.27;2.85;;;;;;;;;;4957059;28;20304;-70
2023/10/15 10:19:45;;;;;;;10.45;3.17;;;;;;;;;;4955466;28;20041;-67
2023/10/15 10:22:23;;;;;;;12.52;3.35;;;;;;;;;;4953940;28;20280;-67
2023/10/15 10:24:50;;;;;;;11.93;3.88;;;;;;;;;;4959474;28;20779;-69
2023/10/15 10:27:17;;;;;;;9.65;3.13;;;;;;;;;;4955866;28;20445;-69
2023/10/15 10:29:44;;;;;;;12.50;3.42;;;;;;;;;;4954757;28;20039;-70
2023/10/15 10:32:14;;;;;;;13.45;3.97;;;;;;;;;;4965373;28;20033;-70
2023/10/15 10:34:41;;;;;;;10.75;3.75;;;;;;;;;;4970268;28;20034;-70
2023/10/15 10:37:34;;;;;;;10.70;3.55;;;;;;;;;;4954151;28;20030;-70
2023/10/15 10:40:00;;;;;;;12.77;3.38;;;;;;;;;;4946583;28;20053;-70
2023/10/15 10:42:26;;;;;;;10.95;3.47;;;;;;;;;;4951124;28;20038;-70
2023/10/15 10:44:56;;;;;;;12.18;3.40;;;;;;;;;;4953814;28;20030;-70
2023/10/15 10:47:29;;;;;;;13.68;4.00;;;;;;;;;;4952838;28;21051;-70
2023/10/15 10:49:59;;;;;;;11.43;3.85;;;;;;;;;;4955893;28;20827;-70
2023/10/15 10:52:29;;;;;;;11.23;4.05;;;;;;;;;;4955874;28;20042;-69
2023/10/15 10:55:19;;;;;;;11.30;4.03;;;;;;;;;;4963305;28;20108;-69
2023/10/15 10:57:45;;;;;;;13.13;4.38;;;;;;;;;;4956274;28;20448;-69
2023/10/15 11:00:12;;;;;;;11.73;4.00;;;;;;;;;;4952694;28;20215;-69
2023/10/15 11:02:38;;;;;;;13.80;3.83;;;;;;;;;;4970678;28;20054;-69
2023/10/15 11:05:06;;;;;;;13.40;4.45;;;;;;;;;;4963277;28;20432;-71
2023/10/15 11:07:36;;;;;;;11.88;4.60;;;;;;;;;;4960218;28;20042;-70
2023/10/15 11:10:06;;;;;;;10.32;3.72;;;;;;;;;;4968897;28;20023;-71
2023/10/15 11:12:32;;;;;;;14.80;4.35;;;;;;;;;;4954887;28;20073;-69
2023/10/15 11:14:59;;;;;;;12.30;4.65;;;;;;;;;;4952771;28;20023;-70
2023/10/15 11:17:25;;;;;;;10.85;3.95;;;;;;;;;;4952382;28;20038;-70
2023/10/15 11:19:51;;;;;;;15.80;4.28;;;;;;;;;;4955831;28;20437;-70
2023/10/15 11:22:17;;;;;;;13.07;4.53;;;;;;;;;;4964369;28;20590;-70
2023/10/15 11:24:46;;;;;;;12.82;4.55;;;;;;;;;;4957467;28;20133;-70
2023/10/15 11:27:12;;;;;;;13.85;5.22;;;;;;;;;;4965143;28;20074;-69
2023/10/15 11:29:38;;;;;;;14.02;5.60;;;;;;;;;;4953355;28;20022;-70
2023/10/15 11:32:11;;;;;;;18.17;7.53;;;;;;;;;;4952103;28;20026;-70
2023/10/15 11:34:39;;;;;;;22.80;10.43;;;;;;;;;;4970318;28;20264;-70
2023/10/15 11:37:09;;;;;;;21.27;9.93;;;;;;;;;;4952708;28;20450;-69
2023/10/15 11:39:42;;;;;;;21.67;9.43;;;;;;;;;;4957116;28;20026;-70
2023/10/15 11:42:08;;;;;;;20.35;8.57;;;;;;;;;;4968608;28;20699;-70
2023/10/15 11:44:37;;;;;;;17.27;6.72;;;;;;;;;;4954671;28;20824;-69
2023/10/15 11:47:09;;;;;;;13.32;5.55;;;;;;;;;;4968093;28;20111;-69
2023/10/15 11:49:39;;;;;;;12.48;4.95;;;;;;;;;;4956988;28;20361;-69
2023/10/15 11:52:05;;;;;;;11.20;4.03;;;;;;;;;;4953336;28;20599;-68
2023/10/15 11:54:32;;;;;;;12.35;4.47;;;;;;;;;;4957645;28;20502;-69
2023/10/15 11:57:05;;;;;;;12.23;3.72;;;;;;;;;;4956449;28;20839;-69
2023/10/15 11:59:31;;;;;;;13.43;4.53;;;;;;;;;;4953356;28;20069;-69
2023/10/15 12:02:01;;;;;;;9.60;3.50;;;;;;;;;;4958322;28;20587;-69
2023/10/15 12:04:28;;;;;;;11.40;3.40;;;;;;;;;;4957200;28;20373;-69
2023/10/15 12:06:54;;;;;;;12.20;3.97;;;;;;;;;;4960218;28;20030;-69
2023/10/15 12:09:26;;;;;;;12.13;4.82;;;;;;;;;;4955737;28;20030;-69
2023/10/15 12:11:53;;;;;;;15.55;5.00;;;;;;;;;;4957820;28;20054;-69
2023/10/15 12:14:19;;;;;;;12.15;4.13;;;;;;;;;;4957347;28;20046;-69
2023/10/15 12:16:45;;;;;;;11.95;3.25;;;;;;;;;;4960786;28;20357;-69
2023/10/15 12:19:11;;;;;;;11.32;3.08;;;;;;;;;;4969868;28;20425;-69
2023/10/15 12:21:38;;;;;;;8.38;2.50;;;;;;;;;;4974553;28;20421;-71
2023/10/15 12:24:05;;;;;;;9.88;2.60;;;;;;;;;;4955915;28;20037;-69
2023/10/15 12:26:31;;;;;;;8.43;2.50;;;;;;;;;;4959775;28;20034;-69
2023/10/15 12:28:57;;;;;;;11.05;3.22;;;;;;;;;;4957916;28;20069;-69
2023/10/15 12:31:24;;;;;;;10.18;3.42;;;;;;;;;;4954066;28;20030;-69
2023/10/15 12:33:50;;;;;;;10.80;4.63;;;;;;;;;;4959936;28;20222;-69
2023/10/15 12:36:17;;;;;;;14.52;4.80;;;;;;;;;;4954888;28;20035;-69
2023/10/15 12:38:43;;;;;;;13.73;4.80;;;;;;;;;;4960356;28;20054;-71
2023/10/15 12:41:10;;;;;;;13.23;4.50;;;;;;;;;;4953481;28;20030;-69
2023/10/15 12:43:37;;;;;;;11.15;3.30;;;;;;;;;;4960197;28;20113;-69
2023/10/15 12:46:03;;;;;;;9.80;2.80;;;;;;;;;;4970388;28;20035;-69
2023/10/15 12:48:30;;;;;;;10.65;3.08;;;;;;;;;;4957915;28;20293;-69
2023/10/15 12:50:57;;;;;;;10.50;3.05;;;;;;;;;;4976555;28;20053;-69
2023/10/15 12:53:24;;;;;;;12.23;4.25;;;;;;;;;;4956442;28;20777;-68
2023/10/15 12:55:51;;;;;;;14.48;5.05;;;;;;;;;;4973368;28;20030;-68
2023/10/15 12:58:17;;;;;;;16.70;6.07;;;;;;;;;;4958500;28;20300;-69
2023/10/15 13:00:43;;;;;;;15.13;6.22;;;;;;;;;;4955544;28;20132;-68
2023/10/15 13:03:10;;;;;;;15.43;6.57;;;;;;;;;;4955572;28;20058;-70
2023/10/15 13:05:36;;;;;;;16.88;5.93;;;;;;;;;;4958195;28;20049;-70
2023/10/15 13:08:03;;;;;;;15.13;5.63;;;;;;;;;;4953772;28;20031;-72
2023/10/15 13:10:32;;;;;;;17.02;7.28;;;;;;;;;;4973967;28;20084;-71
2023/10/15 13:12:59;;;;;;;16.13;6.20;;;;;;;;;;4958736;28;20026;-71
2023/10/15 13:15:26;;;;;;;14.68;6.00;;;;;;;;;;4958619;28;21191;-70
2023/10/15 13:17:55;;;;;;;13.00;4.60;;;;;;;;;;4960636;28;20049;-71
2023/10/15 13:20:23;;;;;;;10.80;3.95;;;;;;;;;;4956554;28;20904;-70
2023/10/15 13:22:49;;;;;;;10.07;2.72;;;;;;;;;;4959351;28;20023;-70
2023/10/15 13:25:15;;;;;;;8.45;2.75;;;;;;;;;;4970162;28;20752;-69
2023/10/15 13:27:42;;;;;;;9.80;2.78;;;;;;;;;;4960706;28;20064;-69
2023/10/15 13:30:12;;;;;;;9.43;2.47;;;;;;;;;;4955630;28;20560;-70
2023/10/15 13:32:40;;;;;;;7.97;2.45;;;;;;;;;;4956898;28;20059;-70
2023/10/15 13:35:07;;;;;;;9.05;2.50;;;;;;;;;;4951955;28;20053;-70
2023/10/15 13:37:33;;;;;;;8.35;2.70;;;;;;;;;;4960472;28;20038;-69
2023/10/15 13:40:00;;;;;;;8.68;2.35;;;;;;;;;;4970013;28;20034;-69
2023/10/15 13:42:26;;;;;;;7.57;2.30;;;;;;;;;;4953358;28;20442;-69
2023/10/15 13:44:52;;;;;;;8.93;2.45;;;;;;;;;;4968778;28;20037;-70
2023/10/15 13:47:18;;;;;;;8.90;2.60;;;;;;;;;;4955642;28;20026;-70
2023/10/15 13:49:44;;;;;;;8.88;2.58;;;;;;;;;;4954793;28;20060;-70
2023/10/15 13:52:11;;;;;;;8.63;2.40;;;;;;;;;;4955326;28;20392;-70
2023/10/15 13:54:38;;;;;;;11.20;2.63;;;;;;;;;;4972749;28;20455;-70
2023/10/15 13:57:06;;;;;;;7.85;2.45;;;;;;;;;;4953983;28;20563;-69
2023/10/15 13:59:32;;;;;;;10.30;2.60;;;;;;;;;;4955742;28;20109;-70
2023/10/15 14:01:58;;;;;;;8.85;2.63;;;;;;;;;;4973589;28;20591;-70
2023/10/15 14:04:24;;;;;;;7.90;2.40;;;;;;;;;;4954370;28;20041;-69
2023/10/15 14:06:50;;;;;;;9.52;2.50;;;;;;;;;;4957998;28;20148;-69
2023/10/15 14:09:17;;;;;;;9.07;2.22;;;;;;;;;;4965415;28;20029;-70
2023/10/15 14:11:43;;;;;;;8.00;2.42;;;;;;;;;;4952986;28;20563;-70
2023/10/15 14:14:10;;;;;;;9.13;2.95;;;;;;;;;;4964967;28;20026;-72
2023/10/15 14:16:36;;;;;;;10.75;2.70;;;;;;;;;;4955876;28;21940;-72
2023/10/15 14:19:04;;;;;;;9.23;2.70;;;;;;;;;;4950760;28;20323;-72
2023/10/15 14:21:30;;;;;;;7.30;2.00;;;;;;;;;;4956816;28;20038;-72
2023/10/15 14:23:56;;;;;;;8.23;2.45;;;;;;;;;;4956466;28;20380;-71
2023/10/15 14:26:23;;;;;;;8.30;2.28;;;;;;;;;;4954044;28;21762;-71
2023/10/15 14:28:50;;;;;;;10.25;2.22;;;;;;;;;;4953515;28;20035;-71
2023/10/15 14:31:17;;;;;;;8.50;2.30;;;;;;;;;;4949779;28;20026;-71
2023/10/15 14:33:43;;;;;;;9.05;2.90;;;;;;;;;;4954753;28;20240;-73
2023/10/15 14:36:09;;;;;;;9.88;2.97;;;;;;;;;;4950142;28;20293;-72
2023/10/15 14:38:36;;;;;;;10.52;3.35;;;;;;;;;;4958635;28;20439;-73
2023/10/15 14:41:02;;;;;;;8.60;2.70;;;;;;;;;;4969466;28;20026;-73
2023/10/15 14:43:29;;;;;;;10.52;2.60;;;;;;;;;;4967908;28;21007;-71
2023/10/15 14:45:56;;;;;;;10.48;2.90;;;;;;;;;;4954617;28;20030;-71
2023/10/15 14:48:25;;;;;;;8.38;2.70;;;;;;;;;;4953728;28;21926;-73
2023/10/15 14:50:51;;;;;;;11.48;2.95;;;;;;;;;;4955630;28;20053;-71
2023/10/15 14:53:17;;;;;;;9.82;3.28;;;;;;;;;;4952337;28;20385;-71